Time;durP1;ratioP1;P1;durP2;ratioP2;P2;SDS_P1;SDS_P2;PMS_P1;PMS_P2;Temp;Humidity;BMP_temperature;BMP_pressure;BME280_temperature;BME280_humidity;BME280_pressure;Samples;Min_cycle;Max_cycle;Signal;HPM_P1;HPM_P2
2023/03/30 00:00:49;;;;;;;18.85;10.48;;;10.50;99.90;;;;;;6350066;22;20010;-85
2023/03/30 00:03:18;;;;;;;18.17;9.33;;;10.50;99.90;;;;;;6375614;22;20143;-85
2023/03/30 00:05:45;;;;;;;17.30;9.57;;;10.60;99.90;;;;;;6375036;22;20018;-86
2023/03/30 00:08:13;;;;;;;15.07;8.68;;;10.60;99.90;;;;;;6403584;22;20018;-85
2023/03/30 00:10:39;;;;;;;16.60;8.57;;;10.60;99.90;;;;;;6374293;22;20395;-86
2023/03/30 00:13:06;;;;;;;;;;;10.60;99.90;;;;;;6376025;22;20018;-86
2023/03/30 00:15:33;;;;;;;16.60;8.25;;;10.60;99.90;;;;;;6374575;22;19918;-85
2023/03/30 00:18:00;;;;;;;13.95;8.20;;;10.60;99.90;;;;;;6401485;22;20018;-85
2023/03/30 00:20:26;;;;;;;14.85;8.07;;;10.60;99.90;;;;;;6374911;22;20017;-85
2023/03/30 00:22:52;;;;;;;13.63;7.80;;;10.60;99.90;;;;;;6374979;22;20347;-85
2023/03/30 00:25:17;;;;;;;14.53;8.03;;;10.70;99.90;;;;;;6374705;22;20292;-85
2023/03/30 00:27:44;;;;;;;16.07;7.83;;;10.60;99.90;;;;;;6348512;22;20048;-86
2023/03/30 00:30:13;;;;;;;14.15;7.85;;;10.60;99.90;;;;;;6374978;22;20029;-85
2023/03/30 00:32:40;;;;;;;16.90;8.77;;;10.60;99.90;;;;;;6374297;22;20058;-85
2023/03/30 00:35:09;;;;;;;15.10;8.52;;;10.60;99.90;;;;;;6375047;22;20435;-85
2023/03/30 00:37:36;;;;;;;15.30;8.25;;;10.60;99.90;;;;;;6402929;22;20327;-85
2023/03/30 00:40:06;;;;;;;14.32;7.95;;;10.60;99.90;;;;;;6374550;22;20058;-85
2023/03/30 00:42:34;;;;;;;16.60;8.48;;;10.60;99.90;;;;;;6348506;22;20010;-85
2023/03/30 00:45:09;;;;;;;13.27;7.93;;;10.60;99.90;;;;;;6348231;22;20018;-85
2023/03/30 00:47:42;;;;;;;14.45;8.13;;;10.60;99.90;;;;;;6375353;22;20021;-85
2023/03/30 00:50:08;;;;;;;15.60;8.20;;;10.60;99.90;;;;;;6402796;22;20014;-86
2023/03/30 00:52:36;;;;;;;15.02;8.18;;;10.60;99.90;;;;;;6374819;22;20116;-85
2023/03/30 00:55:04;;;;;;;13.52;7.25;;;10.70;99.90;;;;;;6402797;22;20453;-87
2023/03/30 00:57:31;;;;;;;14.77;7.95;;;10.70;99.90;;;;;;6347976;22;20014;-85
2023/03/30 00:59:56;;;;;;;15.18;7.45;;;10.70;99.90;;;;;;6373736;22;20021;-85
2023/03/30 01:02:22;;;;;;;14.37;7.23;;;10.70;99.90;;;;;;6374147;22;20114;-86
2023/03/30 01:04:52;;;;;;;13.25;6.90;;;10.70;99.90;;;;;;6348449;22;20014;-86
2023/03/30 01:07:18;;;;;;;13.35;6.47;;;10.70;99.90;;;;;;6374509;22;20018;-86
2023/03/30 01:09:45;;;;;;;12.50;6.73;;;10.70;99.90;;;;;;6348116;22;20010;-86
2023/03/30 01:12:10;;;;;;;10.70;6.20;;;10.70;99.90;;;;;;6348053;22;20438;-86
2023/03/30 01:14:37;;;;;;;11.40;5.97;;;10.70;99.90;;;;;;6373987;22;20100;-86
2023/03/30 01:17:25;;;;;;;10.88;5.97;;;10.80;99.90;;;;;;6374405;22;20051;-86
2023/03/30 01:20:32;;;;;;;9.50;5.55;;;10.80;99.90;;;;;;6348103;22;20044;-86
2023/03/30 01:23:54;;;;;;;11.05;4.90;;;10.80;99.90;;;;;;6273838;22;20019;-86
2023/03/30 01:26:42;;;;;;;9.30;4.50;;;10.80;99.90;;;;;;6198968;22;20023;-85
2023/03/30 01:29:33;;;;;;;11.90;5.60;;;10.80;99.90;;;;;;6374403;22;20029;-86
2023/03/30 01:32:32;;;;;;;7.47;4.20;;;10.90;99.90;;;;;;6347771;22;20010;-85
2023/03/30 01:35:31;;;;;;;6.85;3.50;;;10.90;99.90;;;;;;6402360;22;20033;-85
2023/03/30 01:38:21;;;;;;;11.95;4.47;;;10.90;99.90;;;;;;6374067;22;20398;-85
2023/03/30 01:40:52;;;;;;;7.97;4.30;;;10.90;99.90;;;;;;6373889;22;20018;-85
2023/03/30 01:43:26;;;;;;;8.32;4.20;;;11.00;99.90;;;;;;6374025;22;20045;-86
2023/03/30 01:46:13;;;;;;;7.85;3.50;;;11.00;99.90;;;;;;6374616;22;20081;-86
2023/03/30 01:48:46;;;;;;;9.88;3.88;;;11.00;99.90;;;;;;6373909;22;20465;-86
2023/03/30 01:51:25;;;;;;;9.13;4.38;;;11.00;99.90;;;;;;6347788;22;20036;-86
2023/03/30 01:54:14;;;;;;;7.95;3.70;;;11.00;99.90;;;;;;6373409;22;20443;-86
2023/03/30 01:56:47;;;;;;;8.82;4.35;;;11.00;99.90;;;;;;6372665;22;20014;-87
2023/03/30 01:59:28;;;;;;;9.10;3.63;;;11.00;99.90;;;;;;6373665;22;20439;-87
2023/03/30 02:02:02;;;;;;;7.88;3.60;;;11.10;99.90;;;;;;6401291;22;20018;-86
2023/03/30 02:04:32;;;;;;;8.70;3.50;;;11.10;99.90;;;;;;6373909;22;20063;-87
2023/03/30 02:07:03;;;;;;;7.47;3.60;;;11.10;99.90;;;;;;6373628;22;20055;-87
2023/03/30 02:09:31;;;;;;;6.32;3.00;;;11.20;99.90;;;;;;6374115;22;20139;-86
2023/03/30 02:11:58;;;;;;;9.77;3.38;;;11.20;99.90;;;;;;6373617;22;20447;-85
2023/03/30 02:14:31;;;;;;;6.05;3.08;;;11.20;99.90;;;;;;6373757;22;20013;-85
2023/03/30 02:17:08;;;;;;;7.65;2.92;;;11.20;99.90;;;;;;6402595;22;20419;-85
2023/03/30 02:19:33;;;;;;;7.50;3.25;;;11.30;99.90;;;;;;6401301;22;20013;-85
2023/03/30 02:22:00;;;;;;;5.83;3.00;;;11.30;99.90;;;;;;6373716;22;20097;-86
2023/03/30 02:24:30;;;;;;;7.82;3.20;;;11.30;99.90;;;;;;6347654;22;20093;-85
2023/03/30 02:27:00;;;;;;;6.22;2.92;;;11.30;99.90;;;;;;6399599;22;20024;-86
2023/03/30 02:29:34;;;;;;;7.20;2.92;;;11.30;99.90;;;;;;6373391;22;20113;-85
2023/03/30 02:32:00;;;;;;;5.28;2.38;;;11.30;99.90;;;;;;6399112;22;20049;-85
2023/03/30 02:34:47;;;;;;;6.70;2.78;;;11.30;99.90;;;;;;6373587;22;20094;-86
2023/03/30 02:37:39;;;;;;;5.50;2.40;;;11.30;99.90;;;;;;6373529;22;20355;-85
2023/03/30 02:40:46;;;;;;;6.15;2.58;;;11.40;99.90;;;;;;6346396;22;20338;-85
2023/03/30 02:43:41;;;;;;;6.63;2.58;;;11.40;99.90;;;;;;6358418;22;20018;-86
2023/03/30 02:46:24;;;;;;;5.00;2.20;;;11.40;99.90;;;;;;6373841;22;20107;-86
2023/03/30 02:48:55;;;;;;;6.70;2.67;;;11.40;99.90;;;;;;6374634;22;20332;-88
2023/03/30 02:51:21;;;;;;;5.45;2.45;;;11.50;99.90;;;;;;6373541;22;20013;-85
2023/03/30 02:53:55;;;;;;;6.27;2.50;;;11.40;99.90;;;;;;6373629;22;20014;-86
2023/03/30 02:56:32;;;;;;;4.88;2.03;;;11.40;99.90;;;;;;6373673;22;20021;-86
2023/03/30 02:59:27;;;;;;;5.25;1.98;;;11.50;99.90;;;;;;6373159;22;20021;-86
2023/03/30 03:02:14;;;;;;;8.73;2.53;;;11.50;99.90;;;;;;6339397;22;20395;-87
2023/03/30 03:04:42;;;;;;;5.45;2.35;;;11.50;99.90;;;;;;6373117;22;20060;-87
2023/03/30 03:07:10;;;;;;;5.50;2.20;;;11.50;99.90;;;;;;6372836;22;20018;-87
2023/03/30 03:09:36;;;;;;;5.22;2.30;;;11.60;99.90;;;;;;6373212;22;20021;-87
2023/03/30 03:12:03;;;;;;;5.80;2.70;;;11.60;99.90;;;;;;6373621;22;20022;-87
2023/03/30 03:14:29;;;;;;;4.35;1.90;;;11.70;99.90;;;;;;6400281;22;20035;-87
2023/03/30 03:16:55;;;;;;;4.13;1.92;;;11.70;99.90;;;;;;6373196;22;20051;-88
2023/03/30 03:19:21;;;;;;;5.28;2.00;;;11.80;99.90;;;;;;6373487;22;20092;-90
2023/03/30 03:21:47;;;;;;;4.63;1.60;;;11.90;99.90;;;;;;6373094;22;20021;-87
2023/03/30 03:24:16;;;;;;;4.27;1.50;;;11.90;99.90;;;;;;6400474;22;20089;-87
2023/03/30 03:26:42;;;;;;;4.65;1.80;;;12.00;99.90;;;;;;6347240;22;20334;-87
2023/03/30 03:29:08;;;;;;;4.38;1.98;;;12.00;99.90;;;;;;6373332;22;20014;-86
2023/03/30 03:31:34;;;;;;;4.78;1.83;;;12.10;99.90;;;;;;6346486;22;20013;-88
2023/03/30 03:34:00;;;;;;;4.90;1.75;;;12.10;99.90;;;;;;6373106;22;20018;-88
2023/03/30 03:36:26;;;;;;;5.22;1.73;;;12.10;99.90;;;;;;6372943;22;20102;-88
2023/03/30 03:38:52;;;;;;;5.25;1.60;;;12.10;99.90;;;;;;6402120;22;20089;-87
2023/03/30 03:41:18;;;;;;;4.03;1.40;;;12.10;99.90;;;;;;6375465;22;20044;-88
2023/03/30 03:43:44;;;;;;;4.82;1.70;;;12.20;99.90;;;;;;6375547;22;20014;-87
2023/03/30 03:46:10;;;;;;;4.10;1.53;;;12.10;99.90;;;;;;6402466;22;20439;-88
2023/03/30 03:48:35;;;;;;;6.53;1.58;;;12.10;99.90;;;;;;6375185;22;20018;-87
2023/03/30 03:51:02;;;;;;;6.83;1.77;;;12.10;99.90;;;;;;6375690;22;20013;-87
2023/03/30 03:53:28;;;;;;;6.65;1.60;;;12.10;99.90;;;;;;6322636;22;20350;-88
2023/03/30 03:55:54;;;;;;;3.97;1.40;;;12.10;99.90;;;;;;6374937;22;20387;-87
2023/03/30 03:58:20;;;;;;;3.97;1.67;;;12.10;99.90;;;;;;6374948;22;20024;-87
2023/03/30 04:00:47;;;;;;;3.25;1.50;;;12.10;99.90;;;;;;6375010;22;20435;-89
2023/03/30 04:03:13;;;;;;;4.00;1.58;;;12.10;99.90;;;;;;6375817;22;20026;-86
2023/03/30 04:05:39;;;;;;;4.05;1.80;;;12.10;99.90;;;;;;6350431;22;20014;-87
2023/03/30 04:08:09;;;;;;;5.18;1.27;;;12.10;99.90;;;;;;6376818;22;20036;-86
2023/03/30 04:10:36;;;;;;;4.53;1.60;;;12.10;99.90;;;;;;6375938;22;20059;-88
2023/03/30 04:13:03;;;;;;;3.88;1.50;;;12.20;99.90;;;;;;6374781;22;20443;-88
2023/03/30 04:15:28;;;;;;;;;;;12.20;99.90;;;;;;6375043;22;20063;-87
2023/03/30 04:17:57;;;;;;;3.25;1.30;;;12.20;99.90;;;;;;6402295;22;20258;-86
2023/03/30 04:20:24;;;;;;;5.13;1.38;;;12.20;99.90;;;;;;6375236;22;20022;-88
2023/03/30 04:22:52;;;;;;;4.65;1.15;;;12.20;99.90;;;;;;6401329;22;20065;-87
2023/03/30 04:25:24;;;;;;;3.53;1.20;;;12.10;99.90;;;;;;6374253;22;20014;-88
2023/03/30 04:27:53;;;;;;;3.60;1.10;;;12.20;99.90;;;;;;6372637;22;20014;-86
2023/03/30 04:30:21;;;;;;;3.65;1.00;;;12.20;99.90;;;;;;6375629;22;20339;-86
2023/03/30 04:33:01;;;;;;;6.82;1.20;;;12.20;99.90;;;;;;6349055;22;20499;-87
2023/03/30 04:35:28;;;;;;;2.63;0.90;;;12.20;99.90;;;;;;6375335;22;20021;-88
2023/03/30 04:37:53;;;;;;;3.70;1.13;;;12.20;99.90;;;;;;6375577;22;20066;-86
2023/03/30 04:40:19;;;;;;;3.20;0.70;;;12.20;99.90;;;;;;6375435;22;20018;-86
2023/03/30 04:42:48;;;;;;;3.67;0.83;;;12.20;99.90;;;;;;6347476;22;20255;-88
2023/03/30 04:45:17;;;;;;;2.80;0.90;;;12.20;99.90;;;;;;6374980;22;20075;-87
2023/03/30 04:47:43;;;;;;;4.80;0.98;;;12.20;99.90;;;;;;6375065;22;20022;-85
2023/03/30 04:50:09;;;;;;;3.25;1.35;;;12.20;99.90;;;;;;6402354;22;20042;-86
2023/03/30 04:52:35;;;;;;;4.00;0.73;;;12.30;99.90;;;;;;6375275;22;20075;-87
2023/03/30 04:55:01;;;;;;;4.30;0.80;;;12.30;99.90;;;;;;6375085;22;20010;-87
2023/03/30 04:57:26;;;;;;;3.90;0.70;;;12.20;99.90;;;;;;6374987;22;20343;-88
2023/03/30 04:59:52;;;;;;;2.67;0.90;;;12.30;99.90;;;;;;6374767;22;20296;-86
2023/03/30 05:02:18;;;;;;;6.07;1.00;;;12.30;99.90;;;;;;6402536;22;20059;-85
2023/03/30 05:04:43;;;;;;;3.00;0.70;;;12.30;99.90;;;;;;6374170;22;20013;-86
2023/03/30 05:07:09;;;;;;;3.83;1.20;;;12.30;99.90;;;;;;6375272;22;20025;-86
2023/03/30 05:09:35;;;;;;;4.65;1.02;;;12.30;99.90;;;;;;6348392;22;20439;-88
2023/03/30 05:12:02;;;;;;;2.77;0.93;;;12.30;99.90;;;;;;6347851;22;20043;-86
2023/03/30 05:14:28;;;;;;;2.75;0.93;;;12.30;99.90;;;;;;6348148;22;20526;-85
2023/03/30 05:16:53;;;;;;;3.43;1.10;;;12.30;99.90;;;;;;6347700;22;20053;-86
2023/03/30 05:19:20;;;;;;;3.77;0.90;;;12.30;99.90;;;;;;6373461;22;20114;-86
2023/03/30 05:21:46;;;;;;;3.00;0.88;;;12.30;99.90;;;;;;6346830;22;20039;-85
2023/03/30 05:24:31;;;;;;;4.43;0.90;;;12.30;99.90;;;;;;6348411;22;20036;-87
2023/03/30 05:26:57;;;;;;;2.47;0.77;;;12.30;99.90;;;;;;6373488;22;20018;-87
2023/03/30 05:29:22;;;;;;;2.00;0.77;;;12.30;99.90;;;;;;6348992;22;20446;-86
2023/03/30 05:31:48;;;;;;;3.03;0.90;;;12.30;99.90;;;;;;6346107;22;20048;-87
2023/03/30 05:34:14;;;;;;;2.43;0.90;;;12.30;99.90;;;;;;6345138;22;20009;-87
2023/03/30 05:36:39;;;;;;;2.73;1.10;;;12.30;99.90;;;;;;6400414;22;20009;-87
2023/03/30 05:39:06;;;;;;;5.97;1.47;;;12.30;99.90;;;;;;6346965;22;20161;-89
2023/03/30 05:41:33;;;;;;;3.78;1.10;;;12.30;99.90;;;;;;6374492;22;20099;-86
2023/03/30 05:44:21;;;;;;;3.85;1.25;;;12.30;99.90;;;;;;6373887;22;20014;-90
2023/03/30 05:46:46;;;;;;;6.05;1.23;;;12.30;99.90;;;;;;6346898;22;20010;-89
2023/03/30 05:49:12;;;;;;;4.97;1.02;;;12.30;99.90;;;;;;6347160;22;20017;-91
2023/03/30 05:51:38;;;;;;;2.77;1.00;;;12.40;99.90;;;;;;6320498;22;20010;-91
2023/03/30 05:54:26;;;;;;;5.77;1.10;;;12.30;99.90;;;;;;6373003;22;20049;-92
2023/03/30 05:56:52;;;;;;;3.70;1.08;;;12.30;99.90;;;;;;6347148;22;20060;-94
2023/03/30 05:59:27;;;;;;;4.50;1.33;;;12.30;99.90;;;;;;6321954;22;20014;-88
2023/03/30 06:01:53;;;;;;;3.05;1.20;;;12.30;99.90;;;;;;6320643;22;20032;-93
2023/03/30 06:04:18;;;;;;;4.22;1.50;;;12.30;99.90;;;;;;6321225;22;20066;-88
2023/03/30 06:06:44;;;;;;;2.00;0.83;;;12.30;99.90;;;;;;6401308;22;20335;-92
2023/03/30 06:09:10;;;;;;;3.85;1.40;;;12.30;99.90;;;;;;6347143;22;20025;-90
2023/03/30 06:11:36;;;;;;;3.60;1.35;;;12.30;99.90;;;;;;6373077;22;20085;-90
2023/03/30 06:14:09;;;;;;;4.65;1.20;;;12.30;99.90;;;;;;6374519;22;20033;-91
2023/03/30 06:16:35;;;;;;;4.97;1.60;;;12.40;99.90;;;;;;6348022;22;20352;-91
2023/03/30 06:19:02;;;;;;;3.80;1.52;;;12.40;99.90;;;;;;6373871;22;20020;-90
2023/03/30 06:21:30;;;;;;;4.28;1.38;;;12.30;99.90;;;;;;6348647;22;20016;-93
2023/03/30 06:23:56;;;;;;;3.78;2.10;;;12.40;99.90;;;;;;6374199;22;20014;-90
2023/03/30 06:26:22;;;;;;;3.33;1.30;;;12.40;99.90;;;;;;6321943;22;20021;-91
2023/03/30 06:28:48;;;;;;;2.83;1.20;;;12.40;99.90;;;;;;6321662;22;20013;-90
2023/03/30 06:31:14;;;;;;;3.27;1.50;;;12.40;99.90;;;;;;6374390;22;20014;-92
2023/03/30 06:33:40;;;;;;;4.22;1.45;;;12.40;99.90;;;;;;6348175;22;20074;-90
2023/03/30 06:36:10;;;;;;;4.22;1.30;;;12.50;99.90;;;;;;6375205;22;20014;-93
2023/03/30 06:38:39;;;;;;;8.20;1.67;;;12.40;99.90;;;;;;6349541;22;20053;-95
2023/03/30 06:41:13;;;;;;;3.40;1.40;;;12.50;99.90;;;;;;6348200;22;20058;-92
2023/03/30 06:49:04;;;;;;;5.63;2.55;;;12.50;99.90;;;;;;6401946;22;20026;-94
2023/03/30 06:51:30;;;;;;;7.20;2.17;;;12.50;99.90;;;;;;6223539;22;20098;-93
2023/03/30 06:54:00;;;;;;;4.03;1.57;;;12.50;99.90;;;;;;6220950;22;20254;-95
2023/03/30 06:56:26;;;;;;;5.30;1.60;;;12.50;99.90;;;;;;6220804;22;20012;-92
2023/03/30 06:58:52;;;;;;;4.03;1.55;;;12.50;99.90;;;;;;6220695;22;20019;-92
2023/03/30 07:01:18;;;;;;;4.53;1.87;;;12.50;99.90;;;;;;6220362;22;20020;-92
2023/03/30 07:03:47;;;;;;;5.35;1.50;;;12.60;99.90;;;;;;6221383;22;20098;-92
2023/03/30 07:06:13;;;;;;;3.55;1.30;;;12.60;99.90;;;;;;6221120;22;20027;-91
2023/03/30 07:08:39;;;;;;;5.75;2.25;;;12.60;99.90;;;;;;6195661;22;20119;-87
2023/03/30 07:11:23;;;;;;;3.50;1.50;;;12.60;99.90;;;;;;6225236;22;20012;-92
2023/03/30 07:13:49;;;;;;;4.03;1.45;;;12.60;99.90;;;;;;6230198;22;20047;-88
2023/03/30 07:16:15;;;;;;;4.77;1.20;;;12.70;99.90;;;;;;6247378;22;20464;-90
2023/03/30 07:18:40;;;;;;;4.73;1.00;;;12.70;99.90;;;;;;6246850;22;20042;-89
2023/03/30 07:21:07;;;;;;;5.33;1.00;;;12.70;99.90;;;;;;6245780;22;20230;-87
2023/03/30 07:23:35;;;;;;;5.10;1.08;;;12.70;99.90;;;;;;6272824;22;20099;-92
2023/03/30 07:26:01;;;;;;;4.38;1.00;;;12.70;99.90;;;;;;6195647;22;20008;-86
2023/03/30 07:28:27;;;;;;;2.60;0.93;;;12.70;99.90;;;;;;6220599;22;20099;-89
2023/03/30 07:31:09;;;;;;;4.10;1.07;;;12.70;99.90;;;;;;6245792;22;20020;-91
2023/03/30 07:33:38;;;;;;;8.55;1.27;;;12.70;99.90;;;;;;6246302;22;20019;-91
2023/03/30 07:36:25;;;;;;;9.30;1.02;;;12.70;99.90;;;;;;6231843;22;20038;-92
2023/03/30 07:38:50;;;;;;;6.95;1.33;;;12.70;99.90;;;;;;6171236;22;20047;-87
2023/03/30 07:41:18;;;;;;;4.20;0.85;;;12.70;99.90;;;;;;6193695;22;20016;-89
2023/03/30 07:43:44;;;;;;;7.93;1.30;;;12.70;99.90;;;;;;6192722;22;20018;-89
2023/03/30 07:46:13;;;;;;;4.50;0.77;;;12.70;99.90;;;;;;6243376;22;20047;-86
2023/03/30 07:48:40;;;;;;;5.50;1.08;;;12.60;99.90;;;;;;6272290;22;20016;-89
2023/03/30 07:51:34;;;;;;;2.45;1.00;;;12.60;99.90;;;;;;6218865;22;20034;-86
2023/03/30 07:54:27;;;;;;;4.82;1.27;;;12.50;99.90;;;;;;6220640;22;20020;-91
2023/03/30 07:56:52;;;;;;;4.40;1.08;;;12.50;99.90;;;;;;6244769;22;20012;-87
2023/03/30 07:59:19;;;;;;;5.03;1.20;;;12.50;99.90;;;;;;6325122;22;20521;-87
2023/03/30 08:01:45;;;;;;;7.03;1.38;;;12.50;99.90;;;;;;6271755;22;20019;-90
2023/03/30 08:04:30;;;;;;;7.10;1.48;;;12.50;99.90;;;;;;6218595;22;20015;-89
2023/03/30 08:06:56;;;;;;;4.55;1.10;;;12.30;99.90;;;;;;6218169;22;20076;-91
2023/03/30 08:09:22;;;;;;;3.72;1.08;;;12.30;99.90;;;;;;6218761;22;20047;-87
2023/03/30 08:11:48;;;;;;;3.88;1.42;;;12.30;99.90;;;;;;6193311;22;20031;-87
2023/03/30 08:14:13;;;;;;;5.43;1.25;;;12.20;99.90;;;;;;6219539;22;20080;-86
2023/03/30 08:16:39;;;;;;;7.18;1.02;;;12.30;99.90;;;;;;6270744;22;20026;-88
2023/03/30 08:19:17;;;;;;;3.60;1.40;;;12.20;99.90;;;;;;6243968;22;20123;-84
2023/03/30 08:21:43;;;;;;;7.35;1.30;;;12.20;99.90;;;;;;6243669;22;20424;-83
2023/03/30 08:24:09;;;;;;;5.87;1.43;;;12.10;99.90;;;;;;6243235;22;20020;-84
2023/03/30 08:26:35;;;;;;;3.53;1.20;;;12.10;99.90;;;;;;6242119;22;20043;-82
2023/03/30 08:29:01;;;;;;;5.47;1.05;;;12.00;99.90;;;;;;6271555;22;20133;-83
2023/03/30 08:31:27;;;;;;;3.60;1.40;;;12.00;99.90;;;;;;6244193;22;20012;-82
2023/03/30 08:33:52;;;;;;;7.70;1.17;;;12.00;99.90;;;;;;6244324;22;20019;-84
2023/03/30 08:36:19;;;;;;;7.67;1.77;;;12.00;99.90;;;;;;6244366;22;20031;-82
2023/03/30 08:38:45;;;;;;;10.02;1.67;;;12.00;99.90;;;;;;6244239;22;20014;-84
2023/03/30 08:41:56;;;;;;;6.53;1.10;;;12.00;99.90;;;;;;6271531;22;20051;-84
2023/03/30 08:44:37;;;;;;;5.28;1.50;;;12.00;99.90;;;;;;6242452;22;20012;-84
2023/03/30 08:47:07;;;;;;;4.10;0.90;;;11.90;99.90;;;;;;6243895;22;20541;-87
2023/03/30 08:49:41;;;;;;;5.88;1.40;;;11.80;99.90;;;;;;6244300;22;20018;-85
2023/03/30 08:52:20;;;;;;;8.82;1.52;;;11.80;99.90;;;;;;6270985;22;20151;-84
2023/03/30 08:54:47;;;;;;;5.90;1.23;;;11.80;99.90;;;;;;6243510;22;20023;-86
2023/03/30 08:57:46;;;;;;;6.18;1.00;;;11.80;99.90;;;;;;6244409;22;20349;-82
2023/03/30 09:00:23;;;;;;;11.00;2.03;;;11.70;99.90;;;;;;6243953;22;20019;-84
2023/03/30 09:02:54;;;;;;;4.20;1.08;;;11.70;99.90;;;;;;6243548;22;20422;-84
2023/03/30 09:05:31;;;;;;;7.20;1.52;;;11.70;99.90;;;;;;6244014;22;20340;-84
2023/03/30 09:08:17;;;;;;;7.70;2.13;;;11.70;99.90;;;;;;6218752;22;20016;-84
2023/03/30 09:10:48;;;;;;;6.72;1.40;;;11.70;99.90;;;;;;6242552;22;20012;-81
2023/03/30 09:13:19;;;;;;;5.68;1.48;;;11.70;99.90;;;;;;6268701;22;20398;-85
2023/03/30 09:15:48;;;;;;;7.43;2.63;;;11.80;99.90;;;;;;6244057;22;20019;-84
2023/03/30 09:18:34;;;;;;;7.97;1.52;;;11.80;99.90;;;;;;6244872;22;20326;-90
2023/03/30 09:21:05;;;;;;;10.82;1.30;;;11.90;99.90;;;;;;6221459;22;20015;-90
2023/03/30 09:23:32;;;;;;;6.38;1.85;;;12.00;99.90;;;;;;6246688;22;20035;-81
2023/03/30 09:26:17;;;;;;;9.65;1.85;;;12.10;99.90;;;;;;6271270;22;20119;-87
2023/03/30 09:29:18;;;;;;;6.53;1.38;;;12.20;99.90;;;;;;6271804;22;20016;-84
2023/03/30 09:32:00;;;;;;;4.88;1.92;;;12.40;99.90;;;;;;6218598;22;20043;-90
2023/03/30 09:34:44;;;;;;;8.30;1.58;;;12.40;99.90;;;;;;6244518;22;20015;-90
2023/03/30 09:37:17;;;;;;;6.05;1.20;;;12.40;99.90;;;;;;6219596;22;20075;-88
2023/03/30 09:39:47;;;;;;;7.63;1.67;;;12.50;99.90;;;;;;6219532;22;20016;-90
2023/03/30 09:42:24;;;;;;;9.93;1.65;;;12.60;99.90;;;;;;6219288;22;20545;-89
2023/03/30 09:45:13;;;;;;;7.38;1.35;;;12.60;99.90;;;;;;6219654;22;20409;-92
2023/03/30 09:47:43;;;;;;;5.45;1.40;;;12.60;99.90;;;;;;6219468;22;20026;-90
2023/03/30 09:50:18;;;;;;;7.20;1.00;;;12.70;99.90;;;;;;6219447;22;20020;-89
2023/03/30 09:52:55;;;;;;;7.00;0.80;;;12.70;99.90;;;;;;6245250;22;20034;-92
2023/03/30 09:55:21;;;;;;;10.02;1.17;;;12.70;99.90;;;;;;6219553;22;20079;-87
2023/03/30 09:57:49;;;;;;;7.87;0.60;;;12.70;99.90;;;;;;6271365;22;20057;-83
2023/03/30 10:00:31;;;;;;;5.68;0.98;;;12.70;99.90;;;;;;6244065;22;20441;-82
2023/03/30 10:03:02;;;;;;;4.30;0.82;;;12.80;99.90;;;;;;6271074;22;20016;-83
2023/03/30 10:05:30;;;;;;;8.02;0.80;;;12.80;99.90;;;;;;6244385;22;20012;-83
2023/03/30 10:08:18;;;;;;;4.72;1.00;;;12.70;99.90;;;;;;6243966;22;20518;-82
2023/03/30 10:10:44;;;;;;;6.47;0.70;;;12.70;99.90;;;;;;6271235;22;20020;-84
2023/03/30 10:13:13;;;;;;;4.75;0.73;;;12.70;99.90;;;;;;6244127;22;20080;-86
2023/03/30 10:15:43;;;;;;;3.95;0.73;;;12.60;99.90;;;;;;6244421;22;20352;-84
2023/03/30 10:18:17;;;;;;;3.45;0.65;;;12.60;99.90;;;;;;6272594;22;20015;-86
2023/03/30 10:20:50;;;;;;;6.95;0.93;;;12.60;99.90;;;;;;6246376;22;20020;-85
2023/03/30 10:23:18;;;;;;;7.20;1.00;;;12.50;99.90;;;;;;6274337;22;20024;-83
2023/03/30 10:25:48;;;;;;;4.30;0.77;;;12.50;99.90;;;;;;6273040;22;20340;-85
2023/03/30 10:28:29;;;;;;;3.72;0.65;;;12.60;99.90;;;;;;6270786;22;20456;-81
2023/03/30 10:31:07;;;;;;;4.00;0.70;;;12.70;99.90;;;;;;6243879;22;20016;-82
2023/03/30 10:33:39;;;;;;;3.58;0.75;;;12.70;99.90;;;;;;6270856;22;20051;-82
2023/03/30 10:36:06;;;;;;;2.42;0.57;;;12.70;99.90;;;;;;6243787;22;20012;-85
2023/03/30 10:38:33;;;;;;;8.00;1.50;;;12.70;99.90;;;;;;6270825;22;20091;-83
2023/03/30 10:41:11;;;;;;;6.25;1.63;;;12.70;99.90;;;;;;6270792;22;20333;-82
2023/03/30 10:43:40;;;;;;;4.43;0.77;;;12.70;99.90;;;;;;6243806;22;20012;-83
2023/03/30 10:46:28;;;;;;;6.35;0.75;;;12.80;99.90;;;;;;6243789;22;20133;-83
2023/03/30 10:49:00;;;;;;;5.53;0.50;;;12.80;99.90;;;;;;6243339;22;20018;-83
2023/03/30 10:51:47;;;;;;;5.35;0.77;;;12.80;99.90;;;;;;6271224;22;20196;-84
2023/03/30 10:54:16;;;;;;;11.43;1.25;;;12.80;99.90;;;;;;6243822;22;20033;-84
2023/03/30 10:56:55;;;;;;;7.38;1.02;;;12.90;99.90;;;;;;6243820;22;20073;-84
2023/03/30 10:59:38;;;;;;;6.88;1.25;;;12.90;99.90;;;;;;6270559;22;20088;-85
2023/03/30 11:02:22;;;;;;;6.47;0.90;;;12.90;99.90;;;;;;6243687;22;20020;-84
2023/03/30 11:05:13;;;;;;;9.43;1.23;;;12.90;99.90;;;;;;6270683;22;20055;-83
2023/03/30 11:07:47;;;;;;;7.80;0.93;;;12.90;99.90;;;;;;6285098;22;20045;-85
2023/03/30 11:10:31;;;;;;;5.72;1.15;;;12.90;99.90;;;;;;6243340;22;20015;-83
2023/03/30 11:13:14;;;;;;;5.40;1.05;;;12.90;99.90;;;;;;6270908;22;20011;-85
2023/03/30 11:15:53;;;;;;;5.97;1.00;;;12.90;99.90;;;;;;6244009;22;20356;-81
2023/03/30 11:18:30;;;;;;;8.95;1.25;;;12.90;99.90;;;;;;6244511;22;20019;-82
2023/03/30 11:21:03;;;;;;;6.82;1.55;;;13.00;99.90;;;;;;6244620;22;20452;-80
2023/03/30 11:23:43;;;;;;;7.78;1.17;;;13.00;99.90;;;;;;6244372;22;20444;-82
2023/03/30 11:26:12;;;;;;;6.55;1.17;;;13.00;99.90;;;;;;6271333;22;20019;-85
2023/03/30 11:28:59;;;;;;;7.68;1.17;;;13.00;99.90;;;;;;6244270;22;20352;-86
2023/03/30 11:32:01;;;;;;;7.13;1.23;;;13.00;99.90;;;;;;6244691;22;20016;-80
2023/03/30 11:34:47;;;;;;;6.85;0.88;;;13.10;99.90;;;;;;6244542;22;20020;-84
2023/03/30 11:37:56;;;;;;;9.10;1.10;;;13.20;99.90;;;;;;6271261;22;20016;-85
2023/03/30 11:40:28;;;;;;;5.57;1.20;;;13.20;99.90;;;;;;6244168;22;20031;-83
2023/03/30 11:42:55;;;;;;;12.02;1.58;;;13.20;99.90;;;;;;6269316;22;20038;-80
2023/03/30 11:45:39;;;;;;;4.82;0.88;;;13.20;99.90;;;;;;6271292;22;20016;-81
2023/03/30 11:48:27;;;;;;;4.57;0.90;;;13.20;99.90;;;;;;6242630;22;20016;-85
2023/03/30 11:51:01;;;;;;;6.63;1.40;;;13.20;99.90;;;;;;6264920;22;20017;-82
2023/03/30 11:53:27;;;;;;;5.68;0.80;;;13.20;99.90;;;;;;6266123;22;20180;-80
2023/03/30 11:56:23;;;;;;;7.37;1.57;;;13.20;99.90;;;;;;6266175;22;20033;-80
2023/03/30 11:59:03;;;;;;;6.10;1.30;;;13.30;99.90;;;;;;6265499;22;20022;-81
2023/03/30 12:01:38;;;;;;;6.40;0.93;;;13.40;99.90;;;;;;6267303;22;20021;-84
2023/03/30 12:04:10;;;;;;;7.25;1.10;;;13.40;99.90;;;;;;6266989;22;20022;-80
2023/03/30 12:06:39;;;;;;;4.85;0.88;;;13.40;99.90;;;;;;6267130;22;20017;-82
2023/03/30 12:09:24;;;;;;;4.47;0.60;;;13.50;99.90;;;;;;6267104;22;20093;-85
2023/03/30 12:12:14;;;;;;;5.57;0.77;;;13.50;99.90;;;;;;6267559;22;20010;-85
2023/03/30 12:15:14;;;;;;;6.25;0.70;;;13.70;99.90;;;;;;6361111;22;20014;-84
2023/03/30 12:17:54;;;;;;;7.45;1.00;;;13.80;99.90;;;;;;6402822;22;20014;-86
2023/03/30 12:20:26;;;;;;;4.30;0.68;;;13.80;99.90;;;;;;6267097;22;20419;-82
2023/03/30 12:23:16;;;;;;;5.35;0.80;;;13.90;99.90;;;;;;6402655;22;20016;-82
2023/03/30 12:26:00;;;;;;;4.60;0.90;;;14.00;99.90;;;;;;6338437;22;20070;-87
2023/03/30 12:28:42;;;;;;;8.40;2.33;;;13.90;99.90;;;;;;6403213;22;20021;-85
2023/03/30 12:31:07;;;;;;;9.45;1.02;;;13.90;99.90;;;;;;6267671;22;20059;-84
2023/03/30 12:33:35;;;;;;;7.30;0.82;;;14.00;99.90;;;;;;6403313;22;20013;-90
2023/03/30 12:36:25;;;;;;;8.25;1.05;;;14.00;99.90;;;;;;6266088;22;20014;-83
2023/03/30 12:38:56;;;;;;;6.80;1.40;;;14.00;99.90;;;;;;6266209;22;20014;-87
2023/03/30 12:41:25;;;;;;;7.10;0.85;;;14.00;99.90;;;;;;6267095;22;20024;-85
2023/03/30 12:44:21;;;;;;;7.18;1.13;;;14.00;99.90;;;;;;6266977;22;20017;-88
2023/03/30 12:47:08;;;;;;;11.10;1.23;;;13.90;99.90;;;;;;6266028;22;20017;-84
2023/03/30 12:49:59;;;;;;;5.53;1.00;;;14.00;99.90;;;;;;6219329;22;20077;-83
2023/03/30 12:52:41;;;;;;;5.22;0.50;;;14.00;99.90;;;;;;6244574;22;20023;-86
2023/03/30 12:55:20;;;;;;;5.32;0.90;;;14.10;99.90;;;;;;6271636;22;20015;-84
2023/03/30 12:58:00;;;;;;;6.57;0.95;;;14.00;99.90;;;;;;6271843;22;20121;-85
2023/03/30 13:00:35;;;;;;;8.05;1.60;;;14.00;99.90;;;;;;6271676;22;20098;-84
2023/03/30 13:03:23;;;;;;;7.90;1.45;;;13.90;99.90;;;;;;6244535;22;20011;-85
2023/03/30 13:05:50;;;;;;;;;;;14.00;99.90;;;;;;6271897;22;20098;-82
2023/03/30 13:08:25;;;;;;;5.80;0.90;;;13.90;99.90;;;;;;6244277;22;19954;-83
2023/03/30 13:10:50;;;;;;;6.75;1.00;;;13.90;99.90;;;;;;6271264;22;20352;-84
2023/03/30 13:13:22;;;;;;;7.82;1.20;;;14.00;99.90;;;;;;6271433;22;20020;-85
2023/03/30 13:15:53;;;;;;;8.75;1.10;;;14.00;99.90;;;;;;6271573;22;20012;-82
2023/03/30 13:18:23;;;;;;;6.70;0.77;;;14.10;99.90;;;;;;6271745;22;20016;-81
2023/03/30 13:20:55;;;;;;;5.13;0.85;;;14.10;99.90;;;;;;6271454;22;20396;-84